Time;durP1;ratioP1;P1;durP2;ratioP2;P2;SDS_P1;SDS_P2;PMS_P1;PMS_P2;Temp;Humidity;BMP_temperature;BMP_pressure;BME280_temperature;BME280_humidity;BME280_pressure;Samples;Min_cycle;Max_cycle;Signal;HPM_P1;HPM_P2
2023/05/16 00:00:08;;;;;;;6.23;2.80;;;12.00;99.90;;;;;;5035099;28;20182;-83
2023/05/16 00:02:36;;;;;;;4.00;2.80;;;12.00;99.90;;;;;;5023221;28;20627;-83
2023/05/16 00:05:03;;;;;;;8.47;3.33;;;12.00;99.90;;;;;;5031213;28;20445;-83
2023/05/16 00:07:29;;;;;;;6.93;2.70;;;12.00;99.90;;;;;;5038977;28;20866;-84
2023/05/16 00:09:55;;;;;;;5.90;2.50;;;12.00;99.90;;;;;;5029299;28;20441;-84
2023/05/16 00:12:21;;;;;;;4.50;2.63;;;12.00;99.90;;;;;;5023780;28;20444;-84
2023/05/16 00:14:47;;;;;;;5.00;2.77;;;12.10;99.90;;;;;;5033268;28;20472;-83
2023/05/16 00:17:13;;;;;;;4.00;2.10;;;12.10;99.90;;;;;;5029401;28;20436;-84
2023/05/16 00:19:39;;;;;;;3.20;2.37;;;12.20;99.90;;;;;;5028704;28;20441;-83
2023/05/16 00:22:05;;;;;;;4.63;2.60;;;12.20;99.90;;;;;;5036465;28;20275;-82
2023/05/16 00:24:31;;;;;;;3.80;3.20;;;12.20;99.90;;;;;;5019989;28;20463;-82
2023/05/16 00:26:57;;;;;;;5.73;3.90;;;12.20;99.90;;;;;;5021759;28;21192;-81
2023/05/16 00:29:25;;;;;;;8.03;3.43;;;12.10;99.90;;;;;;5035546;28;20462;-85
2023/05/16 00:31:51;;;;;;;8.13;3.70;;;12.10;99.90;;;;;;5038116;28;20197;-82
2023/05/16 00:34:16;;;;;;;3.47;2.63;;;12.00;29.00;;;;;;5037355;28;20464;-84
2023/05/16 00:36:42;;;;;;;6.33;2.73;;;11.90;1.00;;;;;;5029812;28;20209;-83
2023/05/16 00:39:10;;;;;;;6.90;2.60;;;11.90;1.00;;;;;;5029288;28;20190;-79
2023/05/16 00:41:35;;;;;;;6.00;3.03;;;11.90;1.00;;;;;;5020151;28;20425;-83
2023/05/16 00:44:01;;;;;;;7.57;2.73;;;11.90;1.00;;;;;;5025052;28;20496;-83
2023/05/16 00:46:26;;;;;;;3.33;2.47;;;11.90;1.00;;;;;;5032033;28;20198;-85
2023/05/16 00:48:52;;;;;;;11.30;2.83;;;11.90;1.00;;;;;;5027761;28;20199;-83
2023/05/16 00:51:18;;;;;;;6.20;3.07;;;11.90;1.00;;;;;;5037948;28;20183;-84
2023/05/16 00:53:44;;;;;;;13.63;3.97;;;11.80;1.00;;;;;;5030438;28;20363;-82
2023/05/16 00:56:10;;;;;;;8.47;3.83;;;11.80;1.00;;;;;;5038753;28;20445;-83
2023/05/16 00:58:36;;;;;;;6.37;3.47;;;11.80;1.00;;;;;;5034148;28;20181;-82
2023/05/16 01:01:05;;;;;;;9.30;3.93;;;11.80;1.00;;;;;;5034891;28;20186;-83
2023/05/16 01:03:30;;;;;;;7.90;3.40;;;11.80;1.00;;;;;;5040542;28;20487;-83
2023/05/16 01:05:57;;;;;;;7.00;3.47;;;11.70;1.00;;;;;;5040506;28;20425;-83
2023/05/16 01:08:23;;;;;;;7.87;3.30;;;11.60;1.00;;;;;;5037896;28;20775;-82
2023/05/16 01:11:01;;;;;;;8.00;3.10;;;11.60;1.00;;;;;;5037664;28;20498;-84
2023/05/16 01:13:55;;;;;;;9.40;3.87;;;11.60;1.00;;;;;;5040043;28;20444;-83
2023/05/16 01:16:38;;;;;;;7.40;3.50;;;11.70;1.00;;;;;;5016898;28;20445;-83
2023/05/16 01:19:15;;;;;;;12.70;3.93;;;11.60;1.00;;;;;;5031798;28;20440;-82
2023/05/16 01:22:04;;;;;;;8.57;3.17;;;11.60;1.00;;;;;;5035599;28;20460;-83
2023/05/16 01:24:35;;;;;;;13.27;3.90;;;11.60;1.00;;;;;;5030420;28;20444;-83
2023/05/16 01:27:03;;;;;;;8.30;3.50;;;11.60;1.00;;;;;;5028805;28;20425;-81
2023/05/16 01:29:29;;;;;;;14.70;3.70;;;11.60;1.00;;;;;;5033557;28;20474;-82
2023/05/16 01:31:54;;;;;;;17.60;3.70;;;11.60;1.00;;;;;;5032325;28;20440;-83
2023/05/16 01:34:20;;;;;;;8.43;3.87;;;11.60;99.90;;;;;;5035549;28;20225;-82
2023/05/16 01:37:17;;;;;;;9.77;3.47;;;11.60;99.90;;;;;;5039752;28;20182;-83
2023/05/16 01:40:03;;;;;;;8.87;4.07;;;11.60;99.90;;;;;;5018217;28;20248;-82
2023/05/16 01:42:33;;;;;;;14.93;4.10;;;11.50;99.90;;;;;;5019549;28;20464;-82
2023/05/16 01:45:17;;;;;;;15.37;4.00;;;11.50;99.90;;;;;;5021156;28;20488;-83
2023/05/16 01:47:46;;;;;;;16.50;4.00;;;11.50;99.90;;;;;;5034402;28;20447;-83
2023/05/16 01:50:16;;;;;;;11.43;4.50;;;11.50;99.90;;;;;;5036988;28;20559;-83
2023/05/16 01:52:48;;;;;;;10.17;3.40;;;11.50;99.90;;;;;;5030463;28;20433;-83
2023/05/16 01:55:19;;;;;;;14.17;3.60;;;11.50;99.90;;;;;;5031525;28;20418;-83
2023/05/16 01:57:47;;;;;;;13.40;3.87;;;11.50;99.90;;;;;;5026783;28;20425;-84
2023/05/16 02:00:13;;;;;;;14.63;3.70;;;11.50;99.90;;;;;;5030108;28;20468;-83
2023/05/16 02:02:39;;;;;;;11.73;3.87;;;11.50;1.00;;;;;;5033871;28;20480;-83
2023/05/16 02:05:05;;;;;;;16.20;4.83;;;11.50;1.00;;;;;;5029456;28;20422;-80
2023/05/16 02:07:30;;;;;;;17.47;4.03;;;11.40;1.00;;;;;;5025617;28;20644;-83
2023/05/16 02:09:56;;;;;;;6.70;3.40;;;11.50;1.00;;;;;;5040061;28;20448;-83
2023/05/16 02:12:21;;;;;;;8.47;3.90;;;11.50;1.00;;;;;;5036491;28;20193;-84
2023/05/16 02:14:47;;;;;;;9.60;3.40;;;11.50;99.90;;;;;;5035216;28;20292;-83
2023/05/16 02:17:12;;;;;;;12.93;3.93;;;11.40;99.90;;;;;;5024384;28;20197;-82
2023/05/16 02:19:38;;;;;;;12.67;4.37;;;11.40;99.90;;;;;;5037383;28;20220;-83
2023/05/16 02:22:04;;;;;;;12.00;3.20;;;11.40;63.10;;;;;;5027764;28;20301;-84
2023/05/16 02:24:29;;;;;;;9.67;3.20;;;11.40;1.00;;;;;;5030288;28;20207;-83
2023/05/16 02:26:55;;;;;;;14.43;4.07;;;11.40;1.00;;;;;;5021136;28;20190;-83
2023/05/16 02:29:20;;;;;;;11.20;3.67;;;11.40;1.00;;;;;;5036363;28;20261;-84
2023/05/16 02:31:46;;;;;;;10.63;3.80;;;11.30;1.00;;;;;;5025800;28;20210;-81
2023/05/16 02:34:11;;;;;;;7.60;3.50;;;11.30;99.90;;;;;;5035550;28;20592;-84
2023/05/16 02:36:37;;;;;;;15.10;4.10;;;11.30;99.90;;;;;;5034768;28;20190;-82
2023/05/16 02:39:03;;;;;;;19.20;4.33;;;11.30;99.90;;;;;;5029293;28;20191;-83
2023/05/16 02:41:29;;;;;;;14.63;4.03;;;11.30;99.90;;;;;;5028414;28;20179;-80
2023/05/16 02:43:54;;;;;;;12.37;4.00;;;11.20;99.90;;;;;;5018910;28;20915;-82
2023/05/16 02:46:31;;;;;;;18.57;3.90;;;11.20;99.90;;;;;;5018768;28;20418;-83
2023/05/16 02:48:56;;;;;;;17.73;4.30;;;11.10;99.90;;;;;;5019929;28;20599;-83
2023/05/16 02:51:24;;;;;;;15.07;3.87;;;11.10;80.50;;;;;;5034525;28;20473;-83
2023/05/16 02:53:50;;;;;;;16.70;5.40;;;11.00;99.90;;;;;;5037964;28;20214;-83
2023/05/16 02:56:17;;;;;;;13.67;3.87;;;11.00;99.90;;;;;;5028920;28;20505;-81
2023/05/16 02:58:45;;;;;;;11.70;3.27;;;10.90;99.90;;;;;;5028666;28;20503;-83
2023/05/16 03:01:11;;;;;;;9.87;3.50;;;10.90;99.90;;;;;;5034647;28;20445;-82
2023/05/16 03:03:36;;;;;;;15.80;3.60;;;10.90;24.80;;;;;;5033082;28;20482;-83
2023/05/16 03:06:02;;;;;;;10.33;3.00;;;10.80;1.00;;;;;;5030083;28;20209;-82
2023/05/16 03:08:28;;;;;;;14.70;3.23;;;10.80;1.00;;;;;;5033445;28;20189;-82
2023/05/16 03:10:53;;;;;;;12.47;3.53;;;10.70;1.00;;;;;;5028109;28;20189;-82
2023/05/16 03:13:19;;;;;;;13.70;4.00;;;10.70;1.00;;;;;;5020015;28;20256;-81
2023/05/16 03:15:44;;;;;;;11.80;3.40;;;10.60;1.00;;;;;;5027644;28;20237;-81
2023/05/16 03:18:10;;;;;;;10.10;3.53;;;10.60;1.00;;;;;;5035327;28;20202;-82
2023/05/16 03:20:37;;;;;;;19.27;4.03;;;10.50;1.00;;;;;;5025356;28;20783;-83
2023/05/16 03:23:02;;;;;;;22.73;5.70;;;10.40;99.90;;;;;;5028754;28;20230;-83
2023/05/16 03:25:28;;;;;;;13.13;3.90;;;10.40;1.00;;;;;;5035200;28;20464;-82
2023/05/16 03:27:53;;;;;;;12.23;3.50;;;10.30;1.00;;;;;;5033928;28;20578;-83
2023/05/16 03:30:19;;;;;;;21.33;4.50;;;10.30;1.00;;;;;;5031478;28;20621;-83
2023/05/16 03:32:45;;;;;;;14.90;3.43;;;10.20;1.00;;;;;;5035388;28;20190;-82
2023/05/16 03:35:10;;;;;;;9.67;3.17;;;10.20;1.00;;;;;;5029940;28;20186;-83
2023/05/16 03:37:37;;;;;;;14.13;3.87;;;10.20;1.00;;;;;;5036595;28;20950;-83
2023/05/16 03:40:06;;;;;;;12.97;3.60;;;10.10;22.70;;;;;;5038325;28;20268;-84
2023/05/16 03:42:31;;;;;;;10.38;3.30;;;10.10;99.90;;;;;;5033490;28;20880;-82
2023/05/16 03:44:57;;;;;;;15.60;3.30;;;10.00;87.30;;;;;;5025252;28;20199;-82
2023/05/16 03:47:23;;;;;;;8.60;3.03;;;10.00;99.90;;;;;;5036468;28;20218;-83
2023/05/16 03:49:48;;;;;;;7.83;2.73;;;9.90;99.90;;;;;;5032840;28;20210;-80
2023/05/16 03:52:14;;;;;;;13.80;3.83;;;9.90;99.90;;;;;;5032041;28;20182;-82
2023/05/16 03:54:39;;;;;;;15.70;3.43;;;9.80;99.90;;;;;;5033765;28;20822;-83
2023/05/16 03:57:05;;;;;;;9.70;3.60;;;9.80;99.90;;;;;;5025050;28;20235;-81
2023/05/16 03:59:30;;;;;;;14.93;3.47;;;9.80;99.90;;;;;;5035975;28;20220;-83
2023/05/16 04:01:56;;;;;;;12.70;3.13;;;9.80;99.90;;;;;;5032017;28;20191;-83
2023/05/16 04:04:25;;;;;;;15.70;3.00;;;9.80;99.90;;;;;;5036927;28;20266;-83
2023/05/16 04:06:50;;;;;;;20.17;3.38;;;9.80;99.90;;;;;;5032207;28;20175;-83
2023/05/16 04:09:16;;;;;;;17.43;4.17;;;9.80;99.90;;;;;;5038831;28;20201;-83
2023/05/16 04:11:42;;;;;;;21.67;4.67;;;9.80;99.90;;;;;;5029703;28;20179;-83
2023/05/16 04:14:07;;;;;;;10.35;3.63;;;9.70;99.90;;;;;;5032899;28;20206;-81
2023/05/16 04:16:33;;;;;;;12.20;4.47;;;9.70;99.90;;;;;;5020851;28;20185;-82
2023/05/16 04:18:58;;;;;;;13.30;4.23;;;9.70;99.90;;;;;;5025016;28;20193;-82
2023/05/16 04:21:24;;;;;;;15.47;3.90;;;9.70;99.90;;;;;;5037158;28;20186;-80
2023/05/16 04:23:49;;;;;;;18.67;3.40;;;9.70;99.90;;;;;;5030537;28;21002;-82
2023/05/16 04:26:15;;;;;;;20.87;3.20;;;9.70;99.90;;;;;;5034457;28;20651;-83
2023/05/16 04:28:40;;;;;;;10.73;4.57;;;9.70;99.90;;;;;;5033485;28;20185;-83
2023/05/16 04:31:07;;;;;;;6.77;2.80;;;9.80;99.90;;;;;;5040574;28;20182;-83
2023/05/16 04:33:32;;;;;;;13.45;3.75;;;9.80;99.90;;;;;;5038541;28;20199;-82
2023/05/16 04:35:59;;;;;;;20.83;3.30;;;9.90;99.90;;;;;;5035863;28;20194;-82
2023/05/16 04:38:24;;;;;;;11.02;3.00;;;9.90;49.80;;;;;;5033670;28;20252;-82
2023/05/16 04:40:50;;;;;;;8.30;3.70;;;10.00;1.00;;;;;;5039239;28;20190;-81
2023/05/16 04:43:16;;;;;;;8.13;2.87;;;10.00;1.00;;;;;;5030596;28;20821;-84
2023/05/16 04:45:42;;;;;;;12.00;2.78;;;10.00;1.00;;;;;;5034102;28;20201;-83
2023/05/16 04:48:07;;;;;;;12.03;3.90;;;10.10;99.90;;;;;;5025612;28;20179;-82
2023/05/16 04:50:33;;;;;;;13.73;2.93;;;10.10;99.90;;;;;;5021216;28;20185;-83
2023/05/16 04:52:58;;;;;;;16.00;3.90;;;10.20;3.90;;;;;;5027896;28;20206;-82
2023/05/16 04:55:24;;;;;;;9.13;3.00;;;10.20;1.00;;;;;;5037312;28;20194;-83
2023/05/16 04:57:49;;;;;;;13.50;3.10;;;10.30;1.00;;;;;;5037961;28;20220;-84
2023/05/16 05:00:16;;;;;;;10.80;3.40;;;10.40;99.90;;;;;;5031740;28;20224;-81
2023/05/16 05:02:42;;;;;;;11.00;3.70;;;10.40;99.90;;;;;;5032812;28;20226;-82
2023/05/16 05:05:08;;;;;;;14.40;3.33;;;10.60;42.60;;;;;;5040654;28;20498;-81
2023/05/16 05:07:33;;;;;;;10.43;2.30;;;10.70;1.00;;;;;;5035506;28;20430;-82
2023/05/16 05:09:59;;;;;;;12.33;3.77;;;10.90;99.90;;;;;;5037496;28;20184;-82
2023/05/16 05:12:26;;;;;;;13.50;3.63;;;11.10;1.00;;;;;;5023603;28;20182;-82
2023/05/16 05:14:52;;;;;;;15.93;3.50;;;11.20;1.00;;;;;;5032960;28;20787;-83
2023/05/16 05:17:19;;;;;;;14.10;3.57;;;11.40;99.90;;;;;;5038256;28;20425;-82
2023/05/16 05:19:45;;;;;;;6.47;3.20;;;11.50;99.90;;;;;;5020325;28;20619;-81
2023/05/16 05:22:11;;;;;;;13.77;3.10;;;11.70;82.90;;;;;;5026957;28;20503;-83
2023/05/16 05:24:37;;;;;;;13.10;3.53;;;11.80;1.00;;;;;;5036931;28;20452;-82
2023/05/16 05:27:03;;;;;;;7.90;2.30;;;11.90;1.00;;;;;;5031549;28;20182;-84
2023/05/16 05:29:28;;;;;;;12.77;3.80;;;12.00;99.90;;;;;;5025369;28;20429;-83
2023/05/16 05:31:54;;;;;;;15.40;3.17;;;12.10;99.90;;;;;;5032244;28;20445;-80
2023/05/16 05:34:20;;;;;;;12.77;3.40;;;12.20;99.90;;;;;;5036834;28;20280;-82
2023/05/16 05:36:45;;;;;;;17.23;3.67;;;12.30;99.90;;;;;;5040817;28;20249;-82
2023/05/16 05:39:11;;;;;;;9.97;4.20;;;12.60;99.90;;;;;;5025127;28;20222;-84
2023/05/16 05:41:37;;;;;;;16.33;3.43;;;13.00;99.90;;;;;;5021830;28;20177;-82
2023/05/16 05:44:03;;;;;;;15.47;3.10;;;13.40;1.00;;;;;;5031006;28;20236;-84
2023/05/16 05:46:28;;;;;;;6.60;2.87;;;14.10;1.00;;;;;;5039052;28;20427;-83
2023/05/16 05:48:54;;;;;;;9.07;2.50;;;15.90;1.00;;;;;;5031635;28;20271;-82
2023/05/16 05:51:20;;;;;;;10.57;2.90;;;19.30;99.90;;;;;;5033065;28;20251;-84
2023/05/16 05:53:45;;;;;;;14.70;3.23;;;22.50;99.90;;;;;;5024438;28;20644;-85
2023/05/16 05:56:11;;;;;;;8.50;2.70;;;25.50;99.90;;;;;;5046372;28;20719;-83
2023/05/16 05:58:37;;;;;;;12.60;3.00;;;27.80;99.90;;;;;;5038051;28;20191;-85
2023/05/16 06:01:03;;;;;;;15.40;3.50;;;30.00;99.90;;;;;;5033886;28;20190;-84
2023/05/16 06:03:29;;;;;;;8.20;2.77;;;31.10;99.90;;;;;;5039415;28;20475;-85
2023/05/16 06:05:54;;;;;;;10.83;2.83;;;31.60;99.90;;;;;;5030210;28;20191;-86
2023/05/16 06:08:20;;;;;;;8.70;2.60;;;32.80;99.90;;;;;;5035699;28;20206;-85
2023/05/16 06:10:46;;;;;;;10.77;3.27;;;34.70;99.90;;;;;;5040315;28;20217;-86
2023/05/16 06:13:12;;;;;;;10.40;3.10;;;35.00;99.90;;;;;;5030589;28;20206;-85
2023/05/16 06:15:37;;;;;;;9.00;2.77;;;34.70;99.90;;;;;;5036109;28;20449;-85
2023/05/16 06:18:03;;;;;;;13.27;2.57;;;35.80;99.90;;;;;;5037924;28;20182;-85
2023/05/16 06:20:29;;;;;;;7.57;2.43;;;37.50;99.90;;;;;;5039206;28;20751;-85
2023/05/16 06:22:55;;;;;;;8.60;2.50;;;37.50;99.90;;;;;;5040497;28;20216;-83
2023/05/16 06:25:20;;;;;;;8.10;2.13;;;39.30;99.90;;;;;;5038945;28;20182;-83
2023/05/16 06:27:48;;;;;;;13.13;2.97;;;39.70;99.90;;;;;;5041292;28;20470;-84
2023/05/16 06:30:14;;;;;;;12.20;2.53;;;38.00;99.90;;;;;;5029901;28;20656;-84
2023/05/16 06:32:40;;;;;;;9.00;2.20;;;36.80;99.90;;;;;;5038285;28;20451;-84
2023/05/16 06:35:07;;;;;;;11.90;2.43;;;39.10;99.90;;;;;;5035231;28;20476;-83
2023/05/16 06:37:33;;;;;;;7.40;2.60;;;40.30;99.90;;;;;;5038950;28;20193;-83
2023/05/16 06:39:58;;;;;;;8.73;2.50;;;42.10;99.90;;;;;;5043218;28;20425;-84
2023/05/16 06:42:24;;;;;;;7.00;2.80;;;39.50;99.90;;;;;;5040347;28;20222;-83
2023/05/16 06:44:50;;;;;;;6.70;2.10;;;40.60;99.90;;;;;;5034331;28;20253;-84
2023/05/16 06:47:15;;;;;;;8.50;2.20;;;41.30;99.90;;;;;;5041585;28;20197;-84
2023/05/16 06:49:41;;;;;;;6.10;2.13;;;43.30;99.90;;;;;;5039393;28;20186;-84
2023/05/16 06:52:06;;;;;;;7.27;1.90;;;44.50;99.70;;;;;;5042198;28;20212;-84
2023/05/16 06:54:32;;;;;;;8.10;2.30;;;46.20;97.90;;;;;;5041804;28;20241;-85
2023/05/16 06:56:57;;;;;;;7.97;1.90;;;44.10;92.10;;;;;;5041372;28;20187;-84
2023/05/16 06:59:23;;;;;;;4.90;1.67;;;44.70;90.10;;;;;;5031454;28;20715;-84
2023/05/16 07:01:48;;;;;;;6.20;2.07;;;45.10;86.80;;;;;;5041116;28;20212;-86
2023/05/16 07:04:14;;;;;;;5.73;1.87;;;47.60;87.80;;;;;;5039963;28;20271;-86
2023/05/16 07:06:40;;;;;;;7.63;2.10;;;47.90;82.10;;;;;;5039566;28;20558;-85
2023/05/16 07:09:06;;;;;;;8.73;2.30;;;50.00;81.40;;;;;;5036399;28;20193;-86
2023/05/16 07:11:31;;;;;;;6.20;2.20;;;51.00;79.20;;;;;;5039540;28;20188;-85
2023/05/16 07:13:57;;;;;;;8.13;2.63;;;46.60;60.50;;;;;;5035171;28;20210;-84
2023/05/16 07:16:23;;;;;;;9.80;2.17;;;42.60;51.90;;;;;;5036103;28;20194;-86
2023/05/16 07:18:48;;;;;;;9.50;3.33;;;43.20;54.90;;;;;;5037712;28;20192;-85
2023/05/16 07:21:14;;;;;;;9.33;2.43;;;41.00;47.90;;;;;;5034995;28;20189;-85
2023/05/16 07:23:40;;;;;;;12.87;2.60;;;36.30;35.50;;;;;;5036264;28;20640;-85
2023/05/16 07:26:05;;;;;;;7.73;2.67;;;32.10;28.30;;;;;;5037602;28;20568;-83
2023/05/16 07:28:31;;;;;;;6.63;2.97;;;29.10;23.10;;;;;;5034603;28;20524;-84
2023/05/16 07:30:57;;;;;;;10.13;2.40;;;26.80;19.60;;;;;;5036494;28;20190;-80
2023/05/16 07:33:23;;;;;;;11.07;2.73;;;25.50;18.30;;;;;;5032341;28;20648;-84
2023/05/16 07:35:50;;;;;;;12.53;2.60;;;24.10;16.30;;;;;;5036060;28;20439;-84
2023/05/16 07:38:15;;;;;;;8.83;2.50;;;23.20;16.20;;;;;;5033890;28;20423;-83
2023/05/16 07:40:41;;;;;;;9.00;2.63;;;22.90;17.60;;;;;;5037953;28;20791;-84
2023/05/16 07:43:07;;;;;;;8.87;2.17;;;27.30;31.40;;;;;;5037995;28;20214;-83
2023/05/16 07:45:32;;;;;;;8.73;2.20;;;27.70;33.30;;;;;;5038036;28;20190;-83
2023/05/16 07:47:58;;;;;;;8.57;2.40;;;30.80;44.30;;;;;;5034566;28;20190;-84
2023/05/16 07:50:24;;;;;;;7.67;2.40;;;30.30;41.60;;;;;;5036939;28;20195;-82
2023/05/16 07:52:50;;;;;;;6.50;1.97;;;31.00;44.40;;;;;;5039476;28;20491;-84
2023/05/16 07:55:15;;;;;;;11.90;2.57;;;29.70;39.80;;;;;;5038417;28;20178;-83
2023/05/16 07:57:42;;;;;;;7.77;2.00;;;33.10;51.50;;;;;;5041849;28;20182;-84
2023/05/16 08:00:08;;;;;;;7.77;1.80;;;38.10;66.90;;;;;;5033503;28;20190;-83
2023/05/16 08:02:34;;;;;;;6.90;1.90;;;41.80;77.30;;;;;;5041077;28;20437;-84
2023/05/16 08:05:00;;;;;;;6.10;1.70;;;44.60;79.90;;;;;;5038667;28;20432;-84
2023/05/16 08:07:26;;;;;;;7.57;2.23;;;46.60;80.40;;;;;;5038929;28;20287;-84
2023/05/16 08:09:51;;;;;;;5.67;2.47;;;48.20;76.50;;;;;;5039346;28;20185;-85
2023/05/16 08:12:17;;;;;;;6.00;2.33;;;49.10;71.80;;;;;;5039151;28;20205;-84
2023/05/16 08:14:45;;;;;;;8.10;2.33;;;49.60;68.90;;;;;;5038618;28;20736;-83
2023/05/16 08:17:13;;;;;;;7.80;2.17;;;49.00;59.60;;;;;;5035891;28;20258;-84
2023/05/16 08:19:38;;;;;;;7.83;2.60;;;43.80;45.70;;;;;;5039578;28;20466;-81
2023/05/16 08:22:06;;;;;;;5.70;2.30;;;39.10;34.10;;;;;;5037813;28;20440;-84
2023/05/16 08:24:32;;;;;;;6.07;2.20;;;35.70;27.90;;;;;;5040496;28;20202;-85
2023/05/16 08:26:57;;;;;;;10.30;2.30;;;32.70;23.20;;;;;;5031615;28;20424;-84
2023/05/16 08:29:23;;;;;;;6.87;2.03;;;30.60;20.60;;;;;;5032411;28;20183;-84
2023/05/16 08:31:48;;;;;;;5.43;1.77;;;28.80;17.60;;;;;;5025592;28;20542;-84
2023/05/16 08:34:14;;;;;;;6.87;2.23;;;30.10;23.30;;;;;;5031377;28;20223;-84
2023/05/16 08:36:39;;;;;;;5.50;1.70;;;30.90;25.60;;;;;;5042591;28;20186;-84
2023/05/16 08:39:06;;;;;;;6.50;2.00;;;34.90;36.60;;;;;;5046500;28;20194;-84
2023/05/16 08:41:32;;;;;;;5.50;2.23;;;38.60;46.40;;;;;;5046827;28;20186;-84
2023/05/16 08:43:57;;;;;;;4.87;1.67;;;39.30;45.80;;;;;;5004133;28;1055361;-84
2023/05/16 08:46:24;;;;;;;6.97;1.70;;;37.60;39.00;;;;;;5038637;28;20208;-84
2023/05/16 08:48:52;;;;;;;6.43;1.73;;;39.40;45.80;;;;;;5035141;28;20189;-85
2023/05/16 08:51:23;;;;;;;5.97;1.67;;;37.40;37.50;;;;;;5035869;28;20456;-84
2023/05/16 08:54:04;;;;;;;7.87;1.50;;;35.40;32.00;;;;;;5040670;28;20481;-85
2023/05/16 08:56:32;;;;;;;6.63;1.80;;;38.80;42.70;;;;;;5033074;28;20476;-85
2023/05/16 08:58:58;;;;;;;6.33;1.67;;;41.10;48.00;;;;;;5026036;28;20410;-85
2023/05/16 09:01:24;;;;;;;6.90;1.70;;;42.80;49.50;;;;;;5032111;28;20425;-84
2023/05/16 09:03:50;;;;;;;4.17;1.60;;;44.10;50.60;;;;;;5034089;28;20206;-85
2023/05/16 09:06:16;;;;;;;9.23;2.30;;;44.90;49.70;;;;;;5035819;28;20190;-80
2023/05/16 09:08:42;;;;;;;4.67;1.80;;;45.30;61.90;;;;;;5022756;28;20429;-84
2023/05/16 09:11:08;;;;;;;4.60;2.00;;;45.90;48.20;;;;;;5021987;28;20413;-84
2023/05/16 09:13:34;;;;;;;6.07;1.90;;;46.60;47.30;;;;;;5037047;28;20241;-83
2023/05/16 09:16:14;;;;;;;5.53;1.60;;;42.30;35.30;;;;;;5035330;28;20425;-84
2023/05/16 09:18:43;;;;;;;6.47;1.50;;;38.70;27.60;;;;;;5040340;28;20182;-84
2023/05/16 09:21:10;;;;;;;6.20;1.93;;;35.80;22.00;;;;;;5028618;28;20410;-83
2023/05/16 09:23:41;;;;;;;4.57;1.70;;;34.40;20.40;;;;;;5024093;28;20461;-85
2023/05/16 09:26:09;;;;;;;6.90;2.27;;;34.80;23.00;;;;;;5024657;28;20899;-85
2023/05/16 09:28:38;;;;;;;7.03;1.90;;;37.30;28.90;;;;;;5039775;28;20448;-84
2023/05/16 09:31:17;;;;;;;8.13;2.03;;;39.30;34.80;;;;;;5028031;28;20456;-85
2023/05/16 09:33:43;;;;;;;3.63;1.20;;;40.30;36.40;;;;;;5038048;28;20475;-84
2023/05/16 09:36:09;;;;;;;9.60;1.83;;;41.40;37.80;;;;;;5036933;28;20417;-84
2023/05/16 09:38:35;;;;;;;5.47;1.60;;;41.40;36.80;;;;;;5028751;28;20198;-84
2023/05/16 09:41:01;;;;;;;7.10;2.00;;;38.60;28.70;;;;;;5032114;28;20171;-85
2023/05/16 09:43:26;;;;;;;6.07;2.20;;;36.00;23.60;;;;;;5033801;28;20210;-84
2023/05/16 09:45:54;;;;;;;7.03;1.60;;;33.00;18.00;;;;;;5039124;28;20509;-84
2023/05/16 09:48:20;;;;;;;5.87;2.37;;;30.30;13.10;;;;;;5035152;28;20233;-84
2023/05/16 09:50:51;;;;;;;11.77;3.17;;;28.00;9.30;;;;;;5022529;28;20454;-84
2023/05/16 09:53:17;;;;;;;14.30;2.77;;;26.30;7.30;;;;;;5019953;28;20803;-84
2023/05/16 09:55:43;;;;;;;8.47;2.03;;;27.40;11.50;;;;;;5022335;28;20413;-85
2023/05/16 09:58:08;;;;;;;5.97;1.50;;;29.40;17.60;;;;;;5027008;28;20512;-85
2023/05/16 10:00:34;;;;;;;3.03;1.47;;;32.20;24.70;;;;;;5022453;28;20179;-85
2023/05/16 10:03:02;;;;;;;3.33;1.30;;;34.30;29.40;;;;;;5035796;28;20225;-85
2023/05/16 10:05:27;;;;;;;4.10;1.47;;;35.90;33.20;;;;;;5031640;28;20175;-84
2023/05/16 10:07:56;;;;;;;5.67;1.73;;;37.20;35.80;;;;;;5038165;28;20456;-86
2023/05/16 10:10:25;;;;;;;5.47;1.30;;;38.20;37.80;;;;;;5039173;28;20660;-85
2023/05/16 10:12:52;;;;;;;4.97;1.80;;;39.00;50.70;;;;;;5019116;28;20470;-85
2023/05/16 10:15:19;;;;;;;4.97;1.50;;;39.50;39.20;;;;;;5017739;28;20462;-84
2023/05/16 10:17:50;;;;;;;4.83;1.97;;;38.90;36.90;;;;;;5020754;28;20433;-84
2023/05/16 10:20:16;;;;;;;7.57;1.53;;;36.90;29.90;;;;;;5024751;28;20441;-83
2023/05/16 10:22:46;;;;;;;5.53;1.60;;;34.80;25.50;;;;;;5035690;28;20451;-85
2023/05/16 10:25:37;;;;;;;5.13;1.80;;;32.90;21.10;;;;;;5021767;28;20823;-84
2023/05/16 10:28:03;;;;;;;7.17;2.20;;;31.50;19.20;;;;;;5032776;28;20437;-83
2023/05/16 10:30:32;;;;;;;6.33;1.70;;;30.70;18.00;;;;;;5038448;28;20486;-84
2023/05/16 10:32:59;;;;;;;6.20;1.80;;;31.20;20.30;;;;;;5031099;28;20241;-84
2023/05/16 10:35:26;;;;;;;7.70;2.63;;;32.40;23.60;;;;;;5031941;28;20433;-84
2023/05/16 10:37:52;;;;;;;5.23;1.70;;;33.80;27.00;;;;;;5032102;28;20429;-83
2023/05/16 10:40:18;;;;;;;4.50;1.47;;;34.70;28.40;;;;;;5039034;28;20425;-86
2023/05/16 10:42:56;;;;;;;10.10;1.90;;;35.00;28.80;;;;;;5036646;28;20444;-82
2023/05/16 10:45:22;;;;;;;4.80;1.70;;;34.90;28.00;;;;;;5036230;28;20421;-85
2023/05/16 10:47:53;;;;;;;5.73;1.20;;;35.00;28.60;;;;;;5035451;28;20432;-84
2023/05/16 10:50:44;;;;;;;5.83;1.80;;;34.70;27.60;;;;;;5040253;28;20459;-85
2023/05/16 10:53:33;;;;;;;5.97;1.60;;;33.50;24.00;;;;;;5041576;28;20484;-84
2023/05/16 10:55:58;;;;;;;3.40;1.13;;;33.90;25.00;;;;;;5029825;28;21037;-85
2023/05/16 10:58:37;;;;;;;4.23;1.33;;;33.90;25.50;;;;;;5038638;28;20460;-85
2023/05/16 11:01:30;;;;;;;5.23;1.43;;;32.10;21.00;;;;;;5036662;28;20178;-86
2023/05/16 11:03:56;;;;;;;3.77;1.47;;;30.10;26.30;;;;;;5038540;28;20484;-83
2023/05/16 11:06:28;;;;;;;4.40;1.37;;;28.90;14.50;;;;;;5037376;28;20437;-83
2023/05/16 11:11:45;;;;;;;3.83;1.10;;;30.40;20.00;;;;;;5034339;28;20457;-84
2023/05/16 11:14:31;;;;;;;3.40;1.30;;;29.70;18.10;;;;;;5032907;28;20476;-85
2023/05/16 11:17:02;;;;;;;6.60;1.37;;;29.00;17.60;;;;;;5035368;28;20443;-85
2023/05/16 11:19:44;;;;;;;6.17;1.70;;;29.40;19.40;;;;;;5039213;28;20441;-86
2023/05/16 11:22:23;;;;;;;2.40;0.90;;;30.60;22.50;;;;;;5031144;28;20476;-87
2023/05/16 11:24:54;;;;;;;5.00;1.40;;;30.60;21.80;;;;;;5036894;28;20453;-85
2023/05/16 11:27:22;;;;;;;4.23;1.60;;;30.10;20.40;;;;;;5036958;28;20439;-84
2023/05/16 11:29:47;;;;;;;3.30;1.20;;;30.50;32.70;;;;;;5028920;28;20450;-86
2023/05/16 11:32:18;;;;;;;5.63;1.43;;;31.10;24.20;;;;;;5038030;28;20468;-83
2023/05/16 11:34:45;;;;;;;3.27;1.20;;;31.10;23.60;;;;;;5038130;28;20206;-83
2023/05/16 11:37:11;;;;;;;5.90;1.33;;;30.60;23.30;;;;;;5039298;28;20433;-85
2023/05/16 11:39:37;;;;;;;5.90;1.40;;;30.00;20.90;;;;;;5039672;28;20447;-83
2023/05/16 11:42:03;;;;;;;4.33;1.10;;;29.10;20.30;;;;;;5038295;28;20429;-84
2023/05/16 11:44:28;;;;;;;2.80;1.10;;;29.80;22.50;;;;;;5031586;28;20459;-85
2023/05/16 11:46:54;;;;;;;3.30;1.30;;;30.40;25.00;;;;;;5039888;28;20179;-85
2023/05/16 11:49:20;;;;;;;4.03;1.50;;;31.30;27.40;;;;;;5039473;28;20177;-86
2023/05/16 11:51:46;;;;;;;2.80;0.97;;;32.10;28.80;;;;;;5040164;28;20929;-86
2023/05/16 11:54:12;;;;;;;3.07;1.00;;;32.70;30.00;;;;;;5038203;28;20226;-84
2023/05/16 11:56:41;;;;;;;2.17;1.03;;;33.30;30.90;;;;;;5037867;28;20201;-85
2023/05/16 11:59:07;;;;;;;4.27;1.17;;;33.20;29.80;;;;;;5036109;28;20433;-86
2023/05/16 12:01:38;;;;;;;1.97;0.97;;;32.10;26.90;;;;;;5036025;28;20429;-85
2023/05/16 12:04:11;;;;;;;4.80;1.20;;;32.20;27.10;;;;;;5032244;28;20193;-86
2023/05/16 12:06:37;;;;;;;3.63;1.20;;;32.30;27.00;;;;;;5035051;28;20429;-84
2023/05/16 12:09:11;;;;;;;5.40;1.07;;;31.70;24.90;;;;;;5035765;28;20424;-85
2023/05/16 12:11:41;;;;;;;2.60;0.80;;;31.90;25.50;;;;;;5038727;28;20431;-86
2023/05/16 12:14:09;;;;;;;2.50;1.03;;;32.40;27.00;;;;;;5039194;28;20996;-85
2023/05/16 12:16:36;;;;;;;2.83;1.10;;;32.90;27.20;;;;;;5040776;28;20429;-87
2023/05/16 12:19:03;;;;;;;3.70;0.80;;;33.20;27.20;;;;;;5038714;28;20428;-84
2023/05/16 12:21:33;;;;;;;3.77;1.23;;;33.50;27.60;;;;;;5028163;28;20970;-85
2023/05/16 12:23:59;;;;;;;3.27;0.80;;;33.90;28.40;;;;;;5038836;28;20962;-86
2023/05/16 12:26:30;;;;;;;2.77;0.80;;;34.00;27.90;;;;;;5035360;28;20441;-86
2023/05/16 12:28:59;;;;;;;3.40;1.10;;;34.10;27.60;;;;;;5038954;28;20194;-85
2023/05/16 12:31:25;;;;;;;1.60;0.80;;;32.90;24.20;;;;;;5040280;28;20432;-85
2023/05/16 12:33:54;;;;;;;2.80;1.03;;;32.50;23.20;;;;;;5038962;28;21037;-83
2023/05/16 12:36:20;;;;;;;2.10;1.30;;;32.60;23.10;;;;;;5034698;28;20424;-87
2023/05/16 12:38:47;;;;;;;3.93;1.43;;;32.70;23.50;;;;;;5039185;28;20551;-86
2023/05/16 12:41:18;;;;;;;1.40;0.80;;;33.00;24.20;;;;;;5039744;28;20519;-85
2023/05/16 12:43:43;;;;;;;2.73;0.80;;;33.20;24.40;;;;;;5039415;28;20483;-86
2023/05/16 12:46:11;;;;;;;2.73;1.23;;;32.70;23.10;;;;;;5042530;28;20428;-85
2023/05/16 12:48:38;;;;;;;4.40;1.07;;;32.10;21.60;;;;;;5041255;28;20185;-86